sensor_id;sensor_type;location;lat;lon;timestamp;P1;durP1;ratioP1;P2;durP2;ratioP2
22103;SDS011;11218;48.886;9.426;2023-07-31T00:02:15;104.10;;;72.28;;
22103;SDS011;11218;48.886;9.426;2023-07-31T00:04:43;110.22;;;76.60;;
22103;SDS011;11218;48.886;9.426;2023-07-31T00:07:11;91.20;;;64.45;;
22103;SDS011;11218;48.886;9.426;2023-07-31T00:09:39;141.90;;;96.57;;
22103;SDS011;11218;48.886;9.426;2023-07-31T00:12:07;128.98;;;88.72;;
22103;SDS011;11218;48.886;9.426;2023-07-31T00:14:36;140.30;;;94.10;;
22103;SDS011;11218;48.886;9.426;2023-07-31T00:17:04;117.25;;;81.50;;
22103;SDS011;11218;48.886;9.426;2023-07-31T00:19:34;102.88;;;67.43;;
22103;SDS011;11218;48.886;9.426;2023-07-31T00:22:03;86.95;;;62.05;;
22103;SDS011;11218;48.886;9.426;2023-07-31T00:24:31;67.47;;;48.55;;
22103;SDS011;11218;48.886;9.426;2023-07-31T00:26:59;109.05;;;79.47;;
22103;SDS011;11218;48.886;9.426;2023-07-31T00:29:27;32.00;;;14.70;;
22103;SDS011;11218;48.886;9.426;2023-07-31T00:31:55;45.63;;;26.15;;
22103;SDS011;11218;48.886;9.426;2023-07-31T00:34:23;59.38;;;40.58;;
22103;SDS011;11218;48.886;9.426;2023-07-31T00:36:53;76.32;;;57.80;;
22103;SDS011;11218;48.886;9.426;2023-07-31T00:39:23;83.68;;;60.90;;
22103;SDS011;11218;48.886;9.426;2023-07-31T00:41:51;67.68;;;54.67;;
22103;SDS011;11218;48.886;9.426;2023-07-31T00:44:19;59.83;;;37.55;;
22103;SDS011;11218;48.886;9.426;2023-07-31T00:46:47;45.35;;;37.30;;
22103;SDS011;11218;48.886;9.426;2023-07-31T00:49:15;119.35;;;87.53;;
22103;SDS011;11218;48.886;9.426;2023-07-31T00:51:43;112.22;;;75.38;;
22103;SDS011;11218;48.886;9.426;2023-07-31T00:54:13;122.13;;;85.93;;
22103;SDS011;11218;48.886;9.426;2023-07-31T00:56:41;82.65;;;60.85;;
22103;SDS011;11218;48.886;9.426;2023-07-31T00:59:13;105.50;;;76.90;;
22103;SDS011;11218;48.886;9.426;2023-07-31T01:01:41;72.65;;;52.35;;
22103;SDS011;11218;48.886;9.426;2023-07-31T01:04:09;107.05;;;78.43;;
22103;SDS011;11218;48.886;9.426;2023-07-31T01:06:40;56.33;;;34.75;;
22103;SDS011;11218;48.886;9.426;2023-07-31T01:09:16;80.20;;;56.85;;
22103;SDS011;11218;48.886;9.426;2023-07-31T01:11:52;57.78;;;32.78;;
22103;SDS011;11218;48.886;9.426;2023-07-31T01:14:24;52.75;;;29.98;;
22103;SDS011;11218;48.886;9.426;2023-07-31T01:16:52;65.18;;;29.02;;
22103;SDS011;11218;48.886;9.426;2023-07-31T01:19:21;38.75;;;29.33;;
22103;SDS011;11218;48.886;9.426;2023-07-31T01:21:56;102.60;;;72.95;;
22103;SDS011;11218;48.886;9.426;2023-07-31T01:24:41;93.53;;;68.13;;
22103;SDS011;11218;48.886;9.426;2023-07-31T01:27:23;126.78;;;87.38;;
22103;SDS011;11218;48.886;9.426;2023-07-31T01:29:55;108.55;;;75.70;;
22103;SDS011;11218;48.886;9.426;2023-07-31T01:32:27;100.88;;;77.30;;
22103;SDS011;11218;48.886;9.426;2023-07-31T01:34:57;69.80;;;48.10;;
22103;SDS011;11218;48.886;9.426;2023-07-31T01:37:27;97.70;;;74.38;;
22103;SDS011;11218;48.886;9.426;2023-07-31T01:39:57;86.32;;;62.90;;
22103;SDS011;11218;48.886;9.426;2023-07-31T01:42:26;54.65;;;34.13;;
22103;SDS011;11218;48.886;9.426;2023-07-31T01:44:55;83.10;;;59.15;;
22103;SDS011;11218;48.886;9.426;2023-07-31T01:47:23;58.10;;;48.42;;
22103;SDS011;11218;48.886;9.426;2023-07-31T01:49:51;112.32;;;80.28;;
22103;SDS011;11218;48.886;9.426;2023-07-31T01:52:19;49.22;;;30.50;;
22103;SDS011;11218;48.886;9.426;2023-07-31T01:54:47;57.58;;;39.03;;
22103;SDS011;11218;48.886;9.426;2023-07-31T01:57:15;59.63;;;41.42;;
22103;SDS011;11218;48.886;9.426;2023-07-31T01:59:45;45.47;;;34.08;;
22103;SDS011;11218;48.886;9.426;2023-07-31T02:02:13;47.17;;;29.15;;
22103;SDS011;11218;48.886;9.426;2023-07-31T02:04:41;39.00;;;20.05;;
22103;SDS011;11218;48.886;9.426;2023-07-31T02:07:09;45.75;;;24.70;;
22103;SDS011;11218;48.886;9.426;2023-07-31T02:09:38;29.83;;;26.15;;
22103;SDS011;11218;48.886;9.426;2023-07-31T02:12:06;73.53;;;52.35;;
22103;SDS011;11218;48.886;9.426;2023-07-31T02:14:36;73.90;;;51.03;;
22103;SDS011;11218;48.886;9.426;2023-07-31T02:17:06;111.20;;;75.88;;
22103;SDS011;11218;48.886;9.426;2023-07-31T02:19:34;105.05;;;79.93;;
22103;SDS011;11218;48.886;9.426;2023-07-31T02:22:02;80.55;;;51.10;;
22103;SDS011;11218;48.886;9.426;2023-07-31T02:24:30;74.97;;;56.03;;
22103;SDS011;11218;48.886;9.426;2023-07-31T02:26:59;132.02;;;89.90;;
22103;SDS011;11218;48.886;9.426;2023-07-31T02:29:27;150.52;;;100.13;;
22103;SDS011;11218;48.886;9.426;2023-07-31T02:31:55;145.90;;;93.70;;
22103;SDS011;11218;48.886;9.426;2023-07-31T02:34:25;126.63;;;89.75;;
22103;SDS011;11218;48.886;9.426;2023-07-31T02:36:53;68.13;;;47.47;;
22103;SDS011;11218;48.886;9.426;2023-07-31T02:39:21;95.68;;;66.45;;
22103;SDS011;11218;48.886;9.426;2023-07-31T02:41:49;116.55;;;75.97;;
22103;SDS011;11218;48.886;9.426;2023-07-31T02:44:17;135.23;;;88.07;;
22103;SDS011;11218;48.886;9.426;2023-07-31T02:46:46;63.00;;;32.05;;
22103;SDS011;11218;48.886;9.426;2023-07-31T02:49:15;34.88;;;17.00;;
22103;SDS011;11218;48.886;9.426;2023-07-31T02:51:45;51.17;;;28.88;;
22103;SDS011;11218;48.886;9.426;2023-07-31T02:54:13;59.25;;;33.30;;
22103;SDS011;11218;48.886;9.426;2023-07-31T02:56:41;55.40;;;28.52;;
22103;SDS011;11218;48.886;9.426;2023-07-31T02:59:09;55.47;;;33.22;;
22103;SDS011;11218;48.886;9.426;2023-07-31T03:01:37;59.00;;;43.47;;
22103;SDS011;11218;48.886;9.426;2023-07-31T03:04:05;127.05;;;85.28;;
22103;SDS011;11218;48.886;9.426;2023-07-31T03:06:34;119.90;;;85.22;;
22103;SDS011;11218;48.886;9.426;2023-07-31T03:09:05;146.43;;;94.95;;
22103;SDS011;11218;48.886;9.426;2023-07-31T03:11:33;90.00;;;62.22;;
22103;SDS011;11218;48.886;9.426;2023-07-31T03:14:01;76.47;;;49.97;;
22103;SDS011;11218;48.886;9.426;2023-07-31T03:16:29;78.22;;;62.05;;
22103;SDS011;11218;48.886;9.426;2023-07-31T03:18:57;109.20;;;74.20;;
22103;SDS011;11218;48.886;9.426;2023-07-31T03:21:25;76.80;;;53.03;;
22103;SDS011;11218;48.886;9.426;2023-07-31T03:23:53;121.93;;;84.50;;
22103;SDS011;11218;48.886;9.426;2023-07-31T03:26:23;63.78;;;46.53;;
22103;SDS011;11218;48.886;9.426;2023-07-31T03:28:51;91.15;;;63.20;;
22103;SDS011;11218;48.886;9.426;2023-07-31T03:31:19;91.63;;;66.65;;
22103;SDS011;11218;48.886;9.426;2023-07-31T03:33:48;108.63;;;78.00;;
22103;SDS011;11218;48.886;9.426;2023-07-31T03:36:16;107.18;;;79.68;;
22103;SDS011;11218;48.886;9.426;2023-07-31T03:38:45;112.80;;;76.28;;
22103;SDS011;11218;48.886;9.426;2023-07-31T03:41:14;50.55;;;20.35;;
22103;SDS011;11218;48.886;9.426;2023-07-31T03:43:45;49.20;;;26.00;;
22103;SDS011;11218;48.886;9.426;2023-07-31T03:46:13;90.03;;;63.03;;
22103;SDS011;11218;48.886;9.426;2023-07-31T03:48:42;92.25;;;63.85;;
22103;SDS011;11218;48.886;9.426;2023-07-31T03:51:10;89.57;;;53.22;;
22103;SDS011;11218;48.886;9.426;2023-07-31T03:53:38;78.18;;;53.45;;
22103;SDS011;11218;48.886;9.426;2023-07-31T03:56:06;56.53;;;31.20;;
22103;SDS011;11218;48.886;9.426;2023-07-31T03:58:35;65.70;;;42.83;;
22103;SDS011;11218;48.886;9.426;2023-07-31T04:01:05;54.80;;;42.15;;
22103;SDS011;11218;48.886;9.426;2023-07-31T04:03:33;72.72;;;52.97;;
22103;SDS011;11218;48.886;9.426;2023-07-31T04:06:02;110.13;;;70.20;;
22103;SDS011;11218;48.886;9.426;2023-07-31T04:08:30;97.05;;;62.35;;
22103;SDS011;11218;48.886;9.426;2023-07-31T04:10:59;123.18;;;78.85;;
22103;SDS011;11218;48.886;9.426;2023-07-31T04:13:28;56.03;;;28.85;;
22103;SDS011;11218;48.886;9.426;2023-07-31T04:15:57;67.63;;;40.17;;
22103;SDS011;11218;48.886;9.426;2023-07-31T04:18:26;71.50;;;37.90;;
22103;SDS011;11218;48.886;9.426;2023-07-31T04:20:54;67.97;;;44.10;;
22103;SDS011;11218;48.886;9.426;2023-07-31T04:23:23;60.63;;;44.45;;
22103;SDS011;11218;48.886;9.426;2023-07-31T04:25:51;71.82;;;51.63;;
22103;SDS011;11218;48.886;9.426;2023-07-31T04:28:19;63.03;;;42.38;;
22103;SDS011;11218;48.886;9.426;2023-07-31T04:30:48;82.85;;;58.63;;
22103;SDS011;11218;48.886;9.426;2023-07-31T04:33:16;35.47;;;13.90;;
22103;SDS011;11218;48.886;9.426;2023-07-31T04:35:49;45.42;;;19.85;;
22103;SDS011;11218;48.886;9.426;2023-07-31T04:38:18;42.83;;;17.00;;
22103;SDS011;11218;48.886;9.426;2023-07-31T04:40:47;48.15;;;21.15;;
22103;SDS011;11218;48.886;9.426;2023-07-31T04:43:15;59.20;;;26.33;;
22103;SDS011;11218;48.886;9.426;2023-07-31T04:45:45;64.47;;;40.22;;
22103;SDS011;11218;48.886;9.426;2023-07-31T04:48:14;65.32;;;25.17;;
22103;SDS011;11218;48.886;9.426;2023-07-31T04:50:43;54.20;;;21.02;;
22103;SDS011;11218;48.886;9.426;2023-07-31T04:53:12;64.68;;;32.45;;
22103;SDS011;11218;48.886;9.426;2023-07-31T04:55:41;68.15;;;36.60;;
22103;SDS011;11218;48.886;9.426;2023-07-31T04:58:08;78.03;;;47.38;;
22103;SDS011;11218;48.886;9.426;2023-07-31T05:00:36;77.07;;;50.58;;
22103;SDS011;11218;48.886;9.426;2023-07-31T05:03:04;108.35;;;67.57;;
22103;SDS011;11218;48.886;9.426;2023-07-31T05:05:33;66.22;;;49.28;;
22103;SDS011;11218;48.886;9.426;2023-07-31T05:08:02;104.63;;;67.75;;
22103;SDS011;11218;48.886;9.426;2023-07-31T05:10:32;89.65;;;62.58;;
22103;SDS011;11218;48.886;9.426;2023-07-31T05:13:00;65.38;;;27.85;;
22103;SDS011;11218;48.886;9.426;2023-07-31T05:15:28;80.10;;;41.72;;
22103;SDS011;11218;48.886;9.426;2023-07-31T05:17:56;86.03;;;61.38;;
22103;SDS011;11218;48.886;9.426;2023-07-31T05:20:24;101.78;;;65.28;;
22103;SDS011;11218;48.886;9.426;2023-07-31T05:22:54;86.72;;;60.53;;
22103;SDS011;11218;48.886;9.426;2023-07-31T05:25:22;58.70;;;34.28;;
22103;SDS011;11218;48.886;9.426;2023-07-31T05:27:51;77.50;;;46.70;;
22103;SDS011;11218;48.886;9.426;2023-07-31T05:30:19;98.07;;;62.15;;
22103;SDS011;11218;48.886;9.426;2023-07-31T05:32:47;101.70;;;51.42;;
22103;SDS011;11218;48.886;9.426;2023-07-31T05:35:16;78.20;;;44.88;;
22103;SDS011;11218;48.886;9.426;2023-07-31T05:37:44;55.47;;;34.45;;
22103;SDS011;11218;48.886;9.426;2023-07-31T05:40:12;89.25;;;52.80;;
22103;SDS011;11218;48.886;9.426;2023-07-31T05:42:40;45.90;;;20.15;;
22103;SDS011;11218;48.886;9.426;2023-07-31T05:45:10;68.25;;;32.80;;
22103;SDS011;11218;48.886;9.426;2023-07-31T05:47:39;89.25;;;47.47;;
22103;SDS011;11218;48.886;9.426;2023-07-31T05:50:08;84.63;;;56.85;;
22103;SDS011;11218;48.886;9.426;2023-07-31T05:52:36;84.28;;;50.53;;
22103;SDS011;11218;48.886;9.426;2023-07-31T05:55:05;82.75;;;48.17;;
22103;SDS011;11218;48.886;9.426;2023-07-31T05:57:34;60.58;;;33.10;;
22103;SDS011;11218;48.886;9.426;2023-07-31T06:00:02;63.75;;;42.67;;
22103;SDS011;11218;48.886;9.426;2023-07-31T06:02:33;79.43;;;53.78;;
22103;SDS011;11218;48.886;9.426;2023-07-31T06:05:03;95.97;;;64.22;;
22103;SDS011;11218;48.886;9.426;2023-07-31T06:07:32;37.45;;;18.55;;
22103;SDS011;11218;48.886;9.426;2023-07-31T06:10:00;72.70;;;38.60;;
22103;SDS011;11218;48.886;9.426;2023-07-31T06:12:31;60.58;;;34.20;;
22103;SDS011;11218;48.886;9.426;2023-07-31T06:14:59;64.40;;;49.08;;
22103;SDS011;11218;48.886;9.426;2023-07-31T06:17:28;92.45;;;62.95;;
22103;SDS011;11218;48.886;9.426;2023-07-31T06:19:58;58.60;;;33.90;;
22103;SDS011;11218;48.886;9.426;2023-07-31T06:22:26;72.03;;;53.28;;
22103;SDS011;11218;48.886;9.426;2023-07-31T06:24:54;79.85;;;53.97;;
22103;SDS011;11218;48.886;9.426;2023-07-31T06:27:22;96.93;;;58.47;;
22103;SDS011;11218;48.886;9.426;2023-07-31T06:29:50;66.75;;;56.65;;
22103;SDS011;11218;48.886;9.426;2023-07-31T06:32:18;47.03;;;34.92;;
22103;SDS011;11218;48.886;9.426;2023-07-31T06:34:47;72.18;;;51.95;;
22103;SDS011;11218;48.886;9.426;2023-07-31T06:37:16;73.03;;;44.97;;
22103;SDS011;11218;48.886;9.426;2023-07-31T06:39:45;115.53;;;79.15;;
22103;SDS011;11218;48.886;9.426;2023-07-31T06:42:13;128.65;;;86.68;;
22103;SDS011;11218;48.886;9.426;2023-07-31T06:44:41;118.13;;;86.28;;
22103;SDS011;11218;48.886;9.426;2023-07-31T06:47:10;119.13;;;83.70;;
22103;SDS011;11218;48.886;9.426;2023-07-31T06:49:38;113.30;;;76.70;;
22103;SDS011;11218;48.886;9.426;2023-07-31T06:52:06;93.28;;;74.75;;
22103;SDS011;11218;48.886;9.426;2023-07-31T06:54:37;48.50;;;25.35;;
22103;SDS011;11218;48.886;9.426;2023-07-31T06:57:05;41.80;;;16.58;;
22103;SDS011;11218;48.886;9.426;2023-07-31T06:59:34;35.05;;;12.65;;
22103;SDS011;11218;48.886;9.426;2023-07-31T07:02:02;28.45;;;11.82;;
22103;SDS011;11218;48.886;9.426;2023-07-31T07:04:32;43.30;;;20.05;;
22103;SDS011;11218;48.886;9.426;2023-07-31T07:07:01;50.30;;;25.60;;
22103;SDS011;11218;48.886;9.426;2023-07-31T07:09:29;65.90;;;42.60;;
22103;SDS011;11218;48.886;9.426;2023-07-31T07:11:59;73.13;;;50.45;;
22103;SDS011;11218;48.886;9.426;2023-07-31T07:14:27;81.07;;;48.78;;
22103;SDS011;11218;48.886;9.426;2023-07-31T07:16:55;73.30;;;53.05;;
22103;SDS011;11218;48.886;9.426;2023-07-31T07:19:23;90.10;;;55.47;;
22103;SDS011;11218;48.886;9.426;2023-07-31T07:21:51;115.03;;;88.03;;
22103;SDS011;11218;48.886;9.426;2023-07-31T07:24:20;71.32;;;57.03;;
22103;SDS011;11218;48.886;9.426;2023-07-31T07:26:48;102.65;;;74.97;;
22103;SDS011;11218;48.886;9.426;2023-07-31T07:29:20;103.93;;;67.50;;
22103;SDS011;11218;48.886;9.426;2023-07-31T07:31:48;116.20;;;75.38;;
22103;SDS011;11218;48.886;9.426;2023-07-31T07:34:16;91.93;;;56.78;;
22103;SDS011;11218;48.886;9.426;2023-07-31T07:36:44;65.22;;;48.22;;
22103;SDS011;11218;48.886;9.426;2023-07-31T07:39:12;81.95;;;53.13;;
22103;SDS011;11218;48.886;9.426;2023-07-31T07:41:40;80.55;;;50.33;;
22103;SDS011;11218;48.886;9.426;2023-07-31T07:44:08;58.53;;;39.10;;
22103;SDS011;11218;48.886;9.426;2023-07-31T07:46:41;77.30;;;53.95;;
22103;SDS011;11218;48.886;9.426;2023-07-31T07:49:09;61.47;;;39.25;;
22103;SDS011;11218;48.886;9.426;2023-07-31T07:51:38;54.67;;;24.42;;
22103;SDS011;11218;48.886;9.426;2023-07-31T07:54:06;48.13;;;20.35;;
22103;SDS011;11218;48.886;9.426;2023-07-31T07:56:34;61.10;;;22.50;;
22103;SDS011;11218;48.886;9.426;2023-07-31T07:59:04;61.13;;;26.20;;
22103;SDS011;11218;48.886;9.426;2023-07-31T08:01:32;67.72;;;28.52;;
22103;SDS011;11218;48.886;9.426;2023-07-31T08:04:02;72.30;;;35.88;;
22103;SDS011;11218;48.886;9.426;2023-07-31T08:06:30;84.72;;;47.15;;
22103;SDS011;11218;48.886;9.426;2023-07-31T08:08:58;81.40;;;55.20;;
22103;SDS011;11218;48.886;9.426;2023-07-31T08:11:32;121.22;;;81.10;;
22103;SDS011;11218;48.886;9.426;2023-07-31T08:14:00;80.35;;;60.00;;
22103;SDS011;11218;48.886;9.426;2023-07-31T08:16:28;96.60;;;70.20;;
22103;SDS011;11218;48.886;9.426;2023-07-31T08:18:56;96.15;;;66.00;;
22103;SDS011;11218;48.886;9.426;2023-07-31T08:21:26;125.50;;;88.78;;
22103;SDS011;11218;48.886;9.426;2023-07-31T08:23:54;84.05;;;67.13;;
22103;SDS011;11218;48.886;9.426;2023-07-31T08:26:22;112.95;;;78.82;;
22103;SDS011;11218;48.886;9.426;2023-07-31T08:28:50;116.55;;;85.63;;
22103;SDS011;11218;48.886;9.426;2023-07-31T08:31:19;75.90;;;49.78;;
22103;SDS011;11218;48.886;9.426;2023-07-31T08:33:47;69.03;;;52.67;;
22103;SDS011;11218;48.886;9.426;2023-07-31T08:36:15;48.58;;;27.83;;
22103;SDS011;11218;48.886;9.426;2023-07-31T08:38:46;58.60;;;31.80;;
22103;SDS011;11218;48.886;9.426;2023-07-31T08:41:16;55.97;;;23.08;;
22103;SDS011;11218;48.886;9.426;2023-07-31T08:43:44;64.97;;;34.88;;
22103;SDS011;11218;48.886;9.426;2023-07-31T08:46:13;77.97;;;58.40;;
22103;SDS011;11218;48.886;9.426;2023-07-31T08:48:42;81.50;;;55.55;;
22103;SDS011;11218;48.886;9.426;2023-07-31T08:51:11;127.00;;;94.07;;
22103;SDS011;11218;48.886;9.426;2023-07-31T08:53:42;114.82;;;95.72;;
22103;SDS011;11218;48.886;9.426;2023-07-31T08:56:11;162.25;;;119.15;;
22103;SDS011;11218;48.886;9.426;2023-07-31T08:58:43;131.23;;;104.82;;
22103;SDS011;11218;48.886;9.426;2023-07-31T09:01:13;147.30;;;111.43;;
22103;SDS011;11218;48.886;9.426;2023-07-31T09:03:42;81.07;;;69.43;;
22103;SDS011;11218;48.886;9.426;2023-07-31T09:06:13;111.70;;;89.20;;
22103;SDS011;11218;48.886;9.426;2023-07-31T09:08:43;178.05;;;126.03;;
22103;SDS011;11218;48.886;9.426;2023-07-31T09:11:13;115.85;;;87.95;;
22103;SDS011;11218;48.886;9.426;2023-07-31T09:13:41;98.60;;;73.28;;
22103;SDS011;11218;48.886;9.426;2023-07-31T09:16:10;76.05;;;50.35;;
22103;SDS011;11218;48.886;9.426;2023-07-31T09:18:52;72.72;;;41.90;;
22103;SDS011;11218;48.886;9.426;2023-07-31T09:21:21;73.32;;;46.78;;
22103;SDS011;11218;48.886;9.426;2023-07-31T09:23:49;81.68;;;50.65;;
22103;SDS011;11218;48.886;9.426;2023-07-31T09:26:31;81.80;;;52.25;;
22103;SDS011;11218;48.886;9.426;2023-07-31T09:29:01;52.17;;;30.50;;
22103;SDS011;11218;48.886;9.426;2023-07-31T09:31:40;54.95;;;28.30;;
22103;SDS011;11218;48.886;9.426;2023-07-31T09:34:10;63.88;;;38.72;;
22103;SDS011;11218;48.886;9.426;2023-07-31T09:36:40;73.20;;;52.63;;
22103;SDS011;11218;48.886;9.426;2023-07-31T09:39:09;128.23;;;98.95;;
22103;SDS011;11218;48.886;9.426;2023-07-31T09:41:41;116.13;;;91.03;;
22103;SDS011;11218;48.886;9.426;2023-07-31T09:44:10;100.43;;;76.60;;
22103;SDS011;11218;48.886;9.426;2023-07-31T09:46:39;105.15;;;82.63;;
22103;SDS011;11218;48.886;9.426;2023-07-31T09:49:08;56.95;;;33.03;;
22103;SDS011;11218;48.886;9.426;2023-07-31T09:51:37;63.05;;;28.45;;
22103;SDS011;11218;48.886;9.426;2023-07-31T09:54:09;41.85;;;17.58;;
22103;SDS011;11218;48.886;9.426;2023-07-31T09:56:44;48.50;;;21.25;;
22103;SDS011;11218;48.886;9.426;2023-07-31T09:59:13;44.33;;;20.30;;
22103;SDS011;11218;48.886;9.426;2023-07-31T10:01:44;52.08;;;26.13;;
22103;SDS011;11218;48.886;9.426;2023-07-31T10:04:13;44.92;;;24.13;;
22103;SDS011;11218;48.886;9.426;2023-07-31T10:06:42;55.40;;;28.90;;
22103;SDS011;11218;48.886;9.426;2023-07-31T10:09:12;69.32;;;40.35;;
22103;SDS011;11218;48.886;9.426;2023-07-31T10:11:47;63.38;;;43.92;;
22103;SDS011;11218;48.886;9.426;2023-07-31T10:14:22;67.55;;;44.10;;
22103;SDS011;11218;48.886;9.426;2023-07-31T10:16:52;68.93;;;49.70;;
22103;SDS011;11218;48.886;9.426;2023-07-31T10:19:20;85.45;;;58.53;;
22103;SDS011;11218;48.886;9.426;2023-07-31T10:21:49;85.50;;;59.10;;
22103;SDS011;11218;48.886;9.426;2023-07-31T10:24:18;86.25;;;71.50;;
22103;SDS011;11218;48.886;9.426;2023-07-31T10:26:48;113.82;;;87.60;;
22103;SDS011;11218;48.886;9.426;2023-07-31T10:29:18;114.00;;;91.40;;
22103;SDS011;11218;48.886;9.426;2023-07-31T10:31:47;89.85;;;71.20;;
22103;SDS011;11218;48.886;9.426;2023-07-31T10:34:16;113.25;;;88.22;;
22103;SDS011;11218;48.886;9.426;2023-07-31T10:36:44;100.07;;;65.20;;
22103;SDS011;11218;48.886;9.426;2023-07-31T10:42:11;127.05;;;98.53;;
22103;SDS011;11218;48.886;9.426;2023-07-31T10:44:43;120.57;;;91.72;;
22103;SDS011;11218;48.886;9.426;2023-07-31T10:47:14;106.20;;;83.75;;
22103;SDS011;11218;48.886;9.426;2023-07-31T10:49:44;132.00;;;98.72;;
22103;SDS011;11218;48.886;9.426;2023-07-31T10:52:13;140.18;;;106.93;;
22103;SDS011;11218;48.886;9.426;2023-07-31T10:54:41;185.07;;;126.85;;
22103;SDS011;11218;48.886;9.426;2023-07-31T10:57:20;165.57;;;125.53;;
22103;SDS011;11218;48.886;9.426;2023-07-31T10:59:48;160.63;;;118.65;;
22103;SDS011;11218;48.886;9.426;2023-07-31T11:02:24;157.52;;;118.43;;
22103;SDS011;11218;48.886;9.426;2023-07-31T11:05:06;110.95;;;83.95;;
22103;SDS011;11218;48.886;9.426;2023-07-31T11:07:46;112.93;;;85.57;;
22103;SDS011;11218;48.886;9.426;2023-07-31T11:10:18;56.03;;;42.60;;
22103;SDS011;11218;48.886;9.426;2023-07-31T11:12:48;86.55;;;64.72;;
22103;SDS011;11218;48.886;9.426;2023-07-31T11:15:17;116.63;;;95.38;;
22103;SDS011;11218;48.886;9.426;2023-07-31T11:17:45;165.05;;;125.20;;
22103;SDS011;11218;48.886;9.426;2023-07-31T11:20:13;103.05;;;91.80;;
22103;SDS011;11218;48.886;9.426;2023-07-31T11:22:41;171.93;;;130.43;;
22103;SDS011;11218;48.886;9.426;2023-07-31T11:25:11;242.35;;;154.65;;
22103;SDS011;11218;48.886;9.426;2023-07-31T11:27:39;242.50;;;164.75;;
22103;SDS011;11218;48.886;9.426;2023-07-31T11:30:11;239.27;;;162.38;;
22103;SDS011;11218;48.886;9.426;2023-07-31T11:32:39;268.13;;;176.48;;
22103;SDS011;11218;48.886;9.426;2023-07-31T11:35:07;262.02;;;168.95;;
22103;SDS011;11218;48.886;9.426;2023-07-31T11:37:40;254.85;;;167.05;;
22103;SDS011;11218;48.886;9.426;2023-07-31T11:40:10;93.97;;;79.70;;
22103;SDS011;11218;48.886;9.426;2023-07-31T11:42:38;124.47;;;104.95;;
22103;SDS011;11218;48.886;9.426;2023-07-31T11:45:08;148.95;;;123.75;;
22103;SDS011;11218;48.886;9.426;2023-07-31T11:47:38;95.10;;;74.55;;
22103;SDS011;11218;48.886;9.426;2023-07-31T11:50:10;98.00;;;76.60;;
22103;SDS011;11218;48.886;9.426;2023-07-31T11:52:40;122.10;;;92.85;;
22103;SDS011;11218;48.886;9.426;2023-07-31T11:55:12;136.20;;;100.22;;
22103;SDS011;11218;48.886;9.426;2023-07-31T11:57:41;118.30;;;93.93;;
22103;SDS011;11218;48.886;9.426;2023-07-31T12:00:16;126.63;;;99.13;;
22103;SDS011;11218;48.886;9.426;2023-07-31T12:02:45;151.45;;;115.75;;
22103;SDS011;11218;48.886;9.426;2023-07-31T12:05:13;146.13;;;113.68;;
22103;SDS011;11218;48.886;9.426;2023-07-31T12:07:46;127.88;;;106.38;;
22103;SDS011;11218;48.886;9.426;2023-07-31T12:10:28;139.45;;;114.72;;
22103;SDS011;11218;48.886;9.426;2023-07-31T12:12:58;204.05;;;141.75;;
22103;SDS011;11218;48.886;9.426;2023-07-31T12:15:36;235.27;;;155.73;;
22103;SDS011;11218;48.886;9.426;2023-07-31T12:18:06;251.00;;;157.00;;
22103;SDS011;11218;48.886;9.426;2023-07-31T12:20:39;251.18;;;163.27;;
22103;SDS011;11218;48.886;9.426;2023-07-31T12:23:13;237.85;;;168.38;;
22103;SDS011;11218;48.886;9.426;2023-07-31T12:25:42;227.50;;;155.27;;
22103;SDS011;11218;48.886;9.426;2023-07-31T12:28:10;141.07;;;112.35;;
22103;SDS011;11218;48.886;9.426;2023-07-31T12:30:42;162.63;;;125.15;;
22103;SDS011;11218;48.886;9.426;2023-07-31T12:33:13;105.18;;;82.30;;
22103;SDS011;11218;48.886;9.426;2023-07-31T12:35:43;139.38;;;105.65;;
22103;SDS011;11218;48.886;9.426;2023-07-31T12:38:12;167.52;;;127.20;;
22103;SDS011;11218;48.886;9.426;2023-07-31T12:40:41;117.45;;;89.57;;
22103;SDS011;11218;48.886;9.426;2023-07-31T12:43:09;152.30;;;121.60;;
22103;SDS011;11218;48.886;9.426;2023-07-31T12:45:37;204.30;;;145.80;;
22103;SDS011;11218;48.886;9.426;2023-07-31T12:48:07;185.68;;;135.15;;
22103;SDS011;11218;48.886;9.426;2023-07-31T12:50:35;97.93;;;72.40;;
22103;SDS011;11218;48.886;9.426;2023-07-31T12:53:04;84.32;;;62.95;;
22103;SDS011;11218;48.886;9.426;2023-07-31T12:55:33;89.13;;;72.43;;
22103;SDS011;11218;48.886;9.426;2023-07-31T12:58:03;74.22;;;65.45;;
22103;SDS011;11218;48.886;9.426;2023-07-31T13:00:31;126.85;;;94.45;;
22103;SDS011;11218;48.886;9.426;2023-07-31T13:02:59;98.07;;;77.35;;
22103;SDS011;11218;48.886;9.426;2023-07-31T13:05:30;94.97;;;74.55;;
22103;SDS011;11218;48.886;9.426;2023-07-31T13:07:59;109.32;;;93.28;;
22103;SDS011;11218;48.886;9.426;2023-07-31T13:10:27;152.55;;;123.40;;
22103;SDS011;11218;48.886;9.426;2023-07-31T13:12:56;167.73;;;129.80;;
22103;SDS011;11218;48.886;9.426;2023-07-31T13:15:24;229.68;;;153.55;;
22103;SDS011;11218;48.886;9.426;2023-07-31T13:17:52;204.38;;;142.52;;
22103;SDS011;11218;48.886;9.426;2023-07-31T13:20:20;214.85;;;147.30;;
22103;SDS011;11218;48.886;9.426;2023-07-31T13:22:50;173.02;;;132.52;;
22103;SDS011;11218;48.886;9.426;2023-07-31T13:25:18;148.20;;;119.78;;
22103;SDS011;11218;48.886;9.426;2023-07-31T13:27:46;174.57;;;129.98;;
22103;SDS011;11218;48.886;9.426;2023-07-31T13:30:14;108.72;;;86.68;;
22103;SDS011;11218;48.886;9.426;2023-07-31T13:32:43;93.95;;;83.88;;
22103;SDS011;11218;48.886;9.426;2023-07-31T13:35:11;128.02;;;111.47;;
22103;SDS011;11218;48.886;9.426;2023-07-31T13:37:39;193.75;;;140.63;;
22103;SDS011;11218;48.886;9.426;2023-07-31T13:40:10;202.18;;;144.55;;
22103;SDS011;11218;48.886;9.426;2023-07-31T13:42:38;242.95;;;168.50;;
22103;SDS011;11218;48.886;9.426;2023-07-31T13:45:06;190.88;;;139.05;;
22103;SDS011;11218;48.886;9.426;2023-07-31T13:47:35;225.00;;;149.55;;
22103;SDS011;11218;48.886;9.426;2023-07-31T13:50:04;146.93;;;115.07;;
22103;SDS011;11218;48.886;9.426;2023-07-31T13:52:33;124.45;;;102.95;;
22103;SDS011;11218;48.886;9.426;2023-07-31T13:55:01;151.32;;;115.32;;
22103;SDS011;11218;48.886;9.426;2023-07-31T13:57:30;144.85;;;111.32;;
22103;SDS011;11218;48.886;9.426;2023-07-31T13:59:59;147.13;;;101.55;;
22103;SDS011;11218;48.886;9.426;2023-07-31T14:02:27;114.90;;;88.65;;
22103;SDS011;11218;48.886;9.426;2023-07-31T14:04:56;134.63;;;101.78;;
22103;SDS011;11218;48.886;9.426;2023-07-31T14:07:24;112.82;;;77.03;;
22103;SDS011;11218;48.886;9.426;2023-07-31T14:09:51;106.40;;;79.45;;
22103;SDS011;11218;48.886;9.426;2023-07-31T14:12:20;122.78;;;101.07;;
22103;SDS011;11218;48.886;9.426;2023-07-31T14:15:09;166.07;;;125.80;;
22103;SDS011;11218;48.886;9.426;2023-07-31T14:17:37;235.23;;;157.90;;
22103;SDS011;11218;48.886;9.426;2023-07-31T14:20:06;258.25;;;162.48;;
22103;SDS011;11218;48.886;9.426;2023-07-31T14:22:35;251.02;;;165.00;;
22103;SDS011;11218;48.886;9.426;2023-07-31T14:25:04;85.63;;;67.30;;
22103;SDS011;11218;48.886;9.426;2023-07-31T14:27:33;100.50;;;84.18;;
22103;SDS011;11218;48.886;9.426;2023-07-31T14:30:01;129.38;;;100.45;;